Weather observations for the past three days for
Norwood, Norwood Memorial Airport
Metric (Imperial)
Date Time (edt) Wind (kph) Vis. (km) Weather Sky Cond. Temperature (ºC) Relative Humidity Wind Chill (°C) Heat Index (°C) Pressure Precipitation (cm)
Air Dwpt 6 hour altimeter (cm) sea level (mb) 1 hr 3 hr 6 hr
Max. Min.
07 03:53 NW 7 11.27 Light Rain BKN046 OVC060 11.7 8.9 83% 75.57 1007.2 0.05
07 02:53 NW 11 16.09 Overcast OVC038 13.3 9.4 77% 75.46 1006.1
07 01:53 W 9 16.09 Overcast BKN015 BKN019 OVC031 14.4 12.8 15.6 13.9 90% 75.51 1006.6 0.03
07 00:53 W 13 16.09 Overcast OVC024 15.6 13.3 86% 75.49 1006.5 0.03
06 23:53 W 13 8.05 Fog/Mist OVC012 15.6 13.9 90% 75.51 1006.6
06 22:53 S 15 16.09 Overcast OVC009 15 13.3 90% 75.49 1006.2
06 21:53 S 13 16.09 Overcast OVC008 14.4 13.3 93% 75.49 1006.3
06 20:53 S 13 G 28 16.09 Overcast OVC007 13.9 12.8 93% 75.54 1006.9
06 18:53 S 11 G 28 16.09 Overcast BKN010 OVC014 14.4 13.3 93% 75.51 1006.6 0.03
06 17:53 S 19 G 30 6.44 Light Rain Fog/Mist BKN015 BKN020 OVC046 15 13.3 90% 75.54 1006.9 0.08
06 16:53 S 19 G 35 8.05 Light Rain Fog/Mist BKN017 OVC065 15.6 13.9 90% 75.57 1007.3 0.05 0.05
06 15:53 S 22 G 44 12.87 Light Rain OVC090 17.2 13.3 78% 75.57 1007.4
06 14:53 S 33 G 50 16.09 Mostly Cloudy and Breezy BKN110 19.4 11.7 61% 75.59 1007.5
06 13:53 SW 30 G 54 16.09 A Few Clouds FEW080 21.1 11.7 21.7 15.6 55% 75.62 1008.0
06 12:53 S 26 G 50 16.09 Fair CLR 20.6 12.2 59% 75.64 1008.5
06 11:53 S 24 G 41 16.09 Fair CLR 21.1 12.2 57% 75.72 1009.4
06 10:53 S 22 G 48 16.09 Fair CLR 21.1 12.2 57% 75.74 1009.9
06 09:53 S 22 G 39 16.09 Fair CLR 19.4 12.2 63% 75.74 1009.7
06 08:53 S 20 G 33 16.09 Fair CLR 18.3 12.2 68% 75.79 1010.4
06 07:53 S 17 G 33 16.09 Fair CLR 15.6 12.2 16.1 14.4 80% 75.82 1010.9
06 06:53 S 15 16.09 Fair CLR 14.4 11.7 84% 75.82 1010.9
06 05:53 S 15 16.09 Fair CLR 15 11.7 81% 75.82 1010.7
06 04:53 S 17 G 30 16.09 Fair CLR 15 11.7 81% 75.82 1010.7
06 03:53 S 11 G 30 16.09 Fair CLR 15.6 11.1 75% 75.82 1010.7
06 02:53 S 15 G 30 16.09 Fair CLR 15.6 11.1 75% 75.79 1010.5
06 01:53 S 17 G 35 16.09 Fair CLR 15.6 10.6 17.2 15.6 72% 75.79 1010.5
06 00:53 S 17 16.09 Fair CLR 16.1 10 67% 75.84 1010.9
05 23:53 S 17 G 31 16.09 Fair CLR 15.6 8.9 65% 75.82 1010.9
05 22:53 S 17 G 33 16.09 Fair CLR 16.7 8.9 60% 75.82 1010.7
05 21:53 S 20 G 43 16.09 Fair CLR 17.2 8.9 58% 75.79 1010.5
05 20:53 S 17 G 33 16.09 Fair CLR 16.7 8.9 60% 75.77 1010.2
05 19:53 S 15 G 31 16.09 Fair CLR 16.7 9.4 26.1 16.7 62% 75.69 1009.1
05 18:53 S 24 G 46 16.09 Fair CLR 17.8 9.4 58% 75.64 1008.3
05 17:53 S 26 G 46 16.09 Fair CLR 21.1 10 49% 75.59 1007.8
05 16:53 S 24 G 50 16.09 Fair CLR 22.8 10 44% 75.57 1007.5
05 15:53 S 30 G 48 16.09 Fair CLR 23.3 10 43% 75.59 1007.5
05 14:53 S 28 G 44 16.09 Fair CLR 26.1 9.4 35% 26 75.59 1007.6
05 13:53 S 30 G 54 16.09 Fair CLR 25 10 26.1 15 39% 26 75.64 1008.5
05 12:53 S 24 G 39 16.09 Fair CLR 26.1 11.1 39% 26 75.67 1008.8
05 11:53 SW 20 16.09 Fair CLR 23.3 10.6 45% 75.74 1009.8
05 10:53 S 13 G 37 16.09 Fair CLR 21.1 10 49% 75.77 1010.0
05 09:53 S 11 16.09 A Few Clouds FEW110 18.9 10 56% 75.79 1010.3
05 08:53 SW 17 16.09 Mostly Cloudy BKN120 17.2 9.4 60% 75.82 1010.7
05 07:53 S 13 16.09 Fair CLR 15 9.4 15 8.9 69% 75.79 1010.6
05 06:53 S 11 16.09 Fair CLR 11.7 8.9 83% 75.79 1010.4
05 05:53 S 9 16.09 Partly Cloudy SCT095 10 8.3 89% 9 75.79 1010.4
05 04:53 SE 9 16.09 Partly Cloudy SCT100 9.4 7.8 90% 8 75.82 1010.6
05 03:53 S 9 16.09 Fair CLR 8.9 7.2 89% 8 75.82 1010.8
05 02:53 S 7 16.09 Fair CLR 9.4 6.7 83% 9 75.84 1010.9
05 01:53 S 9 16.09 Fair CLR 10 6.1 15.6 10 77% 9 75.84 1011.1
05 00:53 S 7 16.09 Fair CLR 11.1 6.1 72% 75.84 1011.2
04 23:53 S 11 16.09 Fair CLR 11.7 6.1 69% 75.84 1011.1
04 22:53 S 9 16.09 Fair CLR 12.2 5.6 64% 75.84 1011.2
04 21:53 S 13 16.09 Fair CLR 13.3 4.4 55% 75.84 1011.1
04 20:53 SW 17 G 30 16.09 Fair CLR 15 3.9 48% 75.79 1010.3
04 19:53 S 17 16.09 Fair CLR 15.6 3.3 22.2 15.6 44% 75.69 1009.0
04 18:53 S 26 G 41 16.09 Fair CLR 18.3 3.3 37% 75.62 1007.9
04 17:53 S 28 G 46 16.09 A Few Clouds FEW090 20 2.8 32% 75.57 1007.4
04 16:53 SW 28 G 52 16.09 Fair CLR 21.7 0.6 25% 75.54 1007.1
04 15:53 SW 19 G 37 16.09 Fair CLR 22.2 0 23% 75.57 1007.3
04 14:53 SW 33 G 57 16.09 Fair and Breezy CLR 21.7 -0.6 23% 75.57 1007.5
04 13:53 SW 24 G 56 16.09 Fair CLR 21.1 -1.1 21.7 12.2 23% 75.62 1008.1
04 12:53 W 30 G 50 16.09 Fair CLR 20.6 -1.1 23% 75.62 1008.2
04 11:53 SW 31 G 61 16.09 Fair CLR 19.4 -0.6 26% 75.69 1009.1
04 10:53 SW 26 G 52 16.09 Fair CLR 18.9 -0.6 27% 75.74 1009.7
04 09:53 W 20 G 35 16.09 Fair CLR 17.8 0.6 32% 75.79 1010.3
04 08:53 SW 15 16.09 Fair CLR 14.4 0 38% 75.84 1011.0
04 07:53 SW 20 G 33 16.09 Fair CLR 12.8 -1.1 12.8 5.6 38% 75.84 1011.2
04 06:53 SW 6 16.09 Fair CLR 8.3 -1.7 50% 75.84 1011.2
04 05:53 Calm 16.09 Overcast OVC090 6.1 0 65% 75.84 1011.1
04 04:53 SW 6 16.09 Overcast OVC095 7.8 -2.2 50% 75.84 1011.0
Date Time (edt) Wind (kph) Vis. (km) Weather Sky Cond. Air Dwpt Max. Min. Relative Humidity Wind Chill (°C) Heat Index (°C) altimeter (cm) sea level (mb) 1 hr 3 hr 6 hr
6 hour
Temperature (ºC) Pressure Precipitation (cm)